createdAt,value
2024-04-10T00:01:19.000Z,78.88
2024-04-10T00:03:49.933Z,79.68
2024-04-10T00:06:21.041Z,80.01
2024-04-10T00:08:51.813Z,81.99
2024-04-10T00:11:25.161Z,80.01
2024-04-10T00:13:56.895Z,81.24
2024-04-10T00:16:27.669Z,82.71
2024-04-10T00:18:58.749Z,81.87
2024-04-10T00:21:34.763Z,82.70
2024-04-10T00:24:05.559Z,83.67
2024-04-10T00:26:36.087Z,82.47
2024-04-10T00:29:12.994Z,83.70
2024-04-10T00:31:44.277Z,84.18
2024-04-10T00:34:15.283Z,83.00
2024-04-10T00:36:46.290Z,84.92
2024-04-10T00:39:17.932Z,83.66
2024-04-10T00:41:48.883Z,84.64
2024-04-10T00:44:21.324Z,82.99
2024-04-10T00:46:52.692Z,84.22
2024-04-10T00:49:23.857Z,80.62
2024-04-10T00:51:55.110Z,80.46
2024-04-10T00:54:26.963Z,79.89
2024-04-10T00:56:57.750Z,79.98
2024-04-10T00:59:28.450Z,79.47
2024-04-10T01:02:01.230Z,79.36
2024-04-10T01:04:31.909Z,77.96
2024-04-10T01:07:02.656Z,78.11
2024-04-10T01:09:33.267Z,78.58
2024-04-10T01:12:03.810Z,78.05
2024-04-10T01:14:35.281Z,78.01
2024-04-10T01:17:06.519Z,77.89
2024-04-10T01:19:37.440Z,78.44
2024-04-10T01:22:07.908Z,78.51
2024-04-10T01:24:39.012Z,76.78
2024-04-10T01:27:10.354Z,77.11
2024-04-10T01:29:41.053Z,77.54
2024-04-10T01:32:11.961Z,78.11
2024-04-10T01:34:42.675Z,77.94
2024-04-10T01:37:13.244Z,77.92
2024-04-10T01:39:43.789Z,76.16
2024-04-10T01:42:14.329Z,76.54
2024-04-10T01:44:45.032Z,76.81
2024-04-10T01:47:16.203Z,76.46
2024-04-10T01:49:47.010Z,75.69
2024-04-10T01:52:17.877Z,75.63
2024-04-10T01:54:49.240Z,75.42
2024-04-10T01:57:19.999Z,75.74
2024-04-10T01:59:51.570Z,76.76
2024-04-10T02:02:22.519Z,75.18
2024-04-10T02:04:53.578Z,75.68
2024-04-10T02:07:24.163Z,76.58
2024-04-10T02:09:55.065Z,75.66
2024-04-10T02:12:25.738Z,74.60
2024-04-10T02:15:00.352Z,74.65
2024-04-10T02:17:32.933Z,75.76
2024-04-10T02:20:04.073Z,74.54
2024-04-10T02:22:35.624Z,75.29
2024-04-10T02:25:06.534Z,75.09
2024-04-10T02:27:37.442Z,75.05
2024-04-10T02:30:09.266Z,75.73
2024-04-10T02:32:40.155Z,74.44
2024-04-10T02:35:11.096Z,74.20
2024-04-10T02:37:41.940Z,75.04
2024-04-10T02:40:12.744Z,75.24
2024-04-10T02:42:54.013Z,74.11
2024-04-10T02:45:24.597Z,74.47
2024-04-10T02:47:55.639Z,74.48
2024-04-10T02:50:26.451Z,74.14
2024-04-10T02:52:57.104Z,74.15
2024-04-10T02:55:30.261Z,74.43
2024-04-10T02:58:00.956Z,73.56
2024-04-10T03:00:33.143Z,73.44
2024-04-10T03:03:04.417Z,73.36
2024-04-10T03:05:35.341Z,73.43
2024-04-10T03:08:07.550Z,73.66
2024-04-10T03:10:38.846Z,73.13
2024-04-10T03:13:12.667Z,74.02
2024-04-10T03:15:46.810Z,72.96
2024-04-10T03:18:17.997Z,74.14
2024-04-10T03:20:48.875Z,74.38
2024-04-10T03:23:20.093Z,72.78
2024-04-10T03:25:51.373Z,74.01
2024-04-10T03:28:22.295Z,72.93
2024-04-10T03:30:55.007Z,73.29
2024-04-10T03:33:29.121Z,73.01
2024-04-10T03:36:00.386Z,73.24
2024-04-10T03:38:31.092Z,73.13
2024-04-10T03:41:01.937Z,72.91
2024-04-10T03:43:33.825Z,72.91
2024-04-10T03:46:08.717Z,72.90
2024-04-10T03:48:41.035Z,73.22
2024-04-10T03:51:12.215Z,72.42
2024-04-10T03:53:43.034Z,73.01
2024-04-10T03:56:14.437Z,72.49
2024-04-10T03:58:45.396Z,72.72
2024-04-10T04:01:22.195Z,73.28
2024-04-10T04:03:53.378Z,73.26
2024-04-10T04:06:24.386Z,73.25
2024-04-10T04:08:55.429Z,73.02
2024-04-10T04:11:26.510Z,72.51
2024-04-10T04:13:57.600Z,71.99
2024-04-10T04:16:28.806Z,72.18
2024-04-10T04:19:00.018Z,72.64
2024-04-10T04:21:33.612Z,71.84
2024-04-10T04:24:06.382Z,72.80
2024-04-10T04:26:37.276Z,72.82
2024-04-10T04:29:08.320Z,71.96
2024-04-10T04:31:39.208Z,72.32
2024-04-10T04:34:15.340Z,72.40
2024-04-10T04:36:47.582Z,72.04
2024-04-10T04:39:17.999Z,72.25
2024-04-10T04:41:48.617Z,72.17
2024-04-10T04:44:22.390Z,71.29
2024-04-10T04:46:53.841Z,70.96
2024-04-10T04:49:25.687Z,71.19
2024-04-10T04:51:57.210Z,71.39
2024-04-10T04:54:28.357Z,71.51
2024-04-10T04:56:59.357Z,71.18
2024-04-10T04:59:30.324Z,71.55
2024-04-10T05:02:01.337Z,70.68
2024-04-10T05:04:50.590Z,70.92
2024-04-10T05:07:25.501Z,70.59
2024-04-10T05:09:58.374Z,71.00
2024-04-10T05:12:29.318Z,70.86
2024-04-10T05:15:01.849Z,71.34
2024-04-10T05:17:37.226Z,70.58
2024-04-10T05:20:15.546Z,70.48
2024-04-10T05:22:48.917Z,70.42
2024-04-10T05:25:20.059Z,70.85
2024-04-10T05:27:51.723Z,71.13
2024-04-10T05:30:23.084Z,70.40
2024-04-10T05:32:54.298Z,70.67
2024-04-10T05:35:25.422Z,70.33
2024-04-10T05:37:56.396Z,70.20
2024-04-10T05:40:27.836Z,70.25
2024-04-10T05:42:58.805Z,69.83
2024-04-10T05:45:29.752Z,69.86
2024-04-10T05:48:00.898Z,70.39
2024-04-10T05:50:32.791Z,69.99
2024-04-10T05:53:04.936Z,69.64
2024-04-10T05:55:37.323Z,69.86
2024-04-10T05:58:10.734Z,70.19
2024-04-10T06:00:41.728Z,70.01
2024-04-10T06:03:16.280Z,69.81
2024-04-10T06:05:47.492Z,69.32
2024-04-10T06:08:18.195Z,69.76
2024-04-10T06:10:54.282Z,68.72
2024-04-10T06:13:25.057Z,69.54
2024-04-10T06:16:03.305Z,68.89
2024-04-10T06:18:35.091Z,69.42
2024-04-10T06:21:07.128Z,69.42
2024-04-10T06:23:38.256Z,69.40
2024-04-10T06:26:09.274Z,69.50
2024-04-10T06:28:40.455Z,68.70
2024-04-10T06:31:11.699Z,68.90
2024-04-10T06:33:42.796Z,69.36
2024-04-10T06:36:13.628Z,68.69
2024-04-10T06:38:46.702Z,68.50
2024-04-10T06:41:17.708Z,68.90
2024-04-10T06:43:48.344Z,68.66
2024-04-10T06:46:19.521Z,68.88
2024-04-10T06:48:51.024Z,68.34
2024-04-10T06:51:22.471Z,69.02
2024-04-10T06:53:53.566Z,68.62
2024-04-10T06:56:25.788Z,68.88
2024-04-10T06:58:57.345Z,68.27
2024-04-10T07:01:28.224Z,68.38
2024-04-10T07:03:59.255Z,68.40
2024-04-10T07:06:30.290Z,68.06
2024-04-10T07:09:01.066Z,68.33
2024-04-10T07:11:33.851Z,68.34
2024-04-10T07:14:09.199Z,68.68
2024-04-10T07:16:39.857Z,67.01
2024-04-10T07:19:11.405Z,67.98
2024-04-10T07:21:42.475Z,67.59
2024-04-10T07:24:13.394Z,67.81
2024-04-10T07:26:45.010Z,67.45
2024-04-10T07:29:19.855Z,67.71
2024-04-10T07:31:50.639Z,67.38
2024-04-10T07:34:22.780Z,67.76
2024-04-10T07:36:53.827Z,67.37
2024-04-10T07:39:24.768Z,67.69
2024-04-10T07:41:55.774Z,67.15
2024-04-10T07:44:26.734Z,67.02
2024-04-10T07:46:58.578Z,66.81
2024-04-10T07:49:30.693Z,66.86
2024-04-10T07:52:02.505Z,66.85
2024-04-10T07:54:35.438Z,67.10
2024-04-10T07:57:07.231Z,66.56
2024-04-10T07:59:39.157Z,66.70
2024-04-10T08:02:10.348Z,66.46
2024-04-10T08:04:41.427Z,67.00
2024-04-10T08:07:12.272Z,66.91
2024-04-10T08:09:43.496Z,66.80
2024-04-10T08:12:20.951Z,66.46
2024-04-10T08:14:55.078Z,66.03
2024-04-10T08:17:28.009Z,66.04
2024-04-10T08:19:59.424Z,66.42
2024-04-10T08:22:34.960Z,66.56
2024-04-10T08:25:06.123Z,65.56
2024-04-10T08:27:37.091Z,65.96
2024-04-10T08:30:08.554Z,67.04
2024-04-10T08:32:39.909Z,65.98
2024-04-10T08:35:12.728Z,66.33
2024-04-10T08:37:43.719Z,66.50
2024-04-10T08:41:01.032Z,64.84
2024-04-10T08:43:37.597Z,66.01
2024-04-10T08:46:11.324Z,65.28
2024-04-10T08:48:45.973Z,65.46
2024-04-10T08:51:37.433Z,65.43
2024-04-10T08:54:11.096Z,65.87
2024-04-10T08:56:41.992Z,66.54
2024-04-10T08:59:12.957Z,66.07
2024-04-10T09:01:48.203Z,65.90
2024-04-10T09:04:25.343Z,66.43
2024-04-10T09:07:06.394Z,65.17
2024-04-10T09:09:37.492Z,66.47
2024-04-10T09:12:08.708Z,65.91
2024-04-10T09:14:39.189Z,65.28
2024-04-10T09:17:12.084Z,65.79
2024-04-10T09:19:47.023Z,66.57
2024-04-10T09:22:19.438Z,66.46
2024-04-10T09:24:50.834Z,66.71
2024-04-10T09:27:21.892Z,66.47
2024-04-10T09:30:02.245Z,66.52
2024-04-10T09:32:38.980Z,66.74
2024-04-10T09:35:11.719Z,65.44
2024-04-10T09:37:46.635Z,65.75
2024-04-10T09:40:26.411Z,65.39
2024-04-10T09:43:05.348Z,66.69
2024-04-10T09:45:38.045Z,66.99
2024-04-10T09:48:14.980Z,66.28
2024-04-10T09:50:48.690Z,66.83
2024-04-10T09:53:21.747Z,66.11
2024-04-10T09:55:55.494Z,67.36
2024-04-10T09:58:26.563Z,67.41
2024-04-10T10:00:57.716Z,67.69
2024-04-10T10:03:29.292Z,66.91
2024-04-10T10:06:06.220Z,66.86
2024-04-10T10:08:38.053Z,67.92
2024-04-10T10:11:11.419Z,67.35
2024-04-10T10:13:44.960Z,68.14
2024-04-10T10:16:28.279Z,67.66
2024-04-10T10:19:07.231Z,67.86
2024-04-10T10:21:38.285Z,68.25
2024-04-10T10:24:09.984Z,67.85
2024-04-10T10:26:41.163Z,67.79
2024-04-10T10:29:15.797Z,68.81
2024-04-10T10:31:48.177Z,67.94
2024-04-10T10:34:25.785Z,68.43
2024-04-10T10:36:57.414Z,68.18
2024-04-10T10:39:29.782Z,68.19
2024-04-10T10:42:08.420Z,69.17
2024-04-10T10:44:39.237Z,68.60
2024-04-10T10:47:12.242Z,69.10
2024-04-10T10:49:43.480Z,68.77
2024-04-10T10:52:14.040Z,68.78
2024-04-10T10:54:45.179Z,68.72
2024-04-10T10:57:19.657Z,68.98
2024-04-10T10:59:50.358Z,69.36
2024-04-10T11:02:22.852Z,69.20
2024-04-10T11:04:54.593Z,69.52
2024-04-10T11:07:26.503Z,69.84
2024-04-10T11:10:07.253Z,69.21
2024-04-10T11:12:39.638Z,68.75
2024-04-10T11:15:13.212Z,68.58
2024-04-10T11:17:44.207Z,68.92
2024-04-10T11:20:18.604Z,68.82
2024-04-10T11:22:49.086Z,68.14
2024-04-10T11:25:20.147Z,68.25
2024-04-10T11:27:55.509Z,67.54
2024-04-10T11:30:33.517Z,66.92
2024-04-10T11:33:10.008Z,66.61
2024-04-10T11:35:42.276Z,66.52
2024-04-10T11:38:13.261Z,66.82
2024-04-10T11:40:47.585Z,66.90
2024-04-10T11:43:44.758Z,66.21
2024-04-10T11:46:26.886Z,66.70
2024-04-10T11:48:57.927Z,66.23
2024-04-10T11:51:33.537Z,66.57
2024-04-10T11:54:15.211Z,66.25
2024-04-10T11:56:57.870Z,66.45
2024-04-10T11:59:29.222Z,66.32
2024-04-10T12:02:02.250Z,67.04
2024-04-10T12:04:38.683Z,67.43
2024-04-10T12:07:14.544Z,66.64
2024-04-10T12:09:48.403Z,67.52
2024-04-10T12:12:28.526Z,67.68
2024-04-10T12:15:11.039Z,68.14
2024-04-10T12:17:51.318Z,67.75
2024-04-10T12:20:30.283Z,67.56
2024-04-10T12:23:00.950Z,67.88
2024-04-10T12:25:32.425Z,68.25
2024-04-10T12:28:04.689Z,67.97
2024-04-10T12:30:35.592Z,68.26
2024-04-10T12:33:06.802Z,68.74
2024-04-10T12:35:55.553Z,69.03
2024-04-10T12:38:28.151Z,69.09
2024-04-10T12:41:02.872Z,68.66
2024-04-10T12:43:33.945Z,68.57
2024-04-10T12:46:05.905Z,68.78
2024-04-10T12:48:37.038Z,68.87
2024-04-10T12:51:07.869Z,68.97
2024-04-10T12:53:47.790Z,67.64
2024-04-10T12:56:20.280Z,65.69
2024-04-10T12:58:51.501Z,63.34
2024-04-10T13:01:22.573Z,63.09
2024-04-10T13:03:59.125Z,62.10
2024-04-10T13:06:30.272Z,60.78
2024-04-10T13:09:01.862Z,60.05
2024-04-10T13:11:33.325Z,60.49
2024-04-10T13:14:04.944Z,59.80
2024-04-10T13:16:36.482Z,60.08
2024-04-10T13:19:10.329Z,59.59
2024-04-10T13:21:41.441Z,60.15
2024-04-10T13:24:12.413Z,60.02
2024-04-10T13:26:44.350Z,58.62
2024-04-10T13:29:15.284Z,59.57
2024-04-10T13:31:46.706Z,59.50
2024-04-10T13:34:18.068Z,59.07
2024-04-10T13:36:49.665Z,58.97
2024-04-10T13:39:20.880Z,58.65
2024-04-10T13:41:51.915Z,58.90
2024-04-10T13:44:25.609Z,59.23
2024-04-10T13:46:57.704Z,58.74
2024-04-10T13:49:29.244Z,58.41
2024-04-10T13:52:00.083Z,58.14
2024-04-10T13:54:36.981Z,58.85
2024-04-10T13:57:10.438Z,59.18
2024-04-10T13:59:41.440Z,58.97
2024-04-10T14:02:12.743Z,58.22
2024-04-10T14:04:43.713Z,58.46
2024-04-10T14:07:16.807Z,58.72
2024-04-10T14:09:47.637Z,58.29
2024-04-10T14:12:18.571Z,58.58
2024-04-10T14:14:51.139Z,58.43
2024-04-10T14:17:27.160Z,59.75
2024-04-10T14:20:01.625Z,59.24
2024-04-10T14:22:32.481Z,58.73
2024-04-10T14:25:03.418Z,59.23
2024-04-10T14:27:35.094Z,58.72
2024-04-10T14:30:06.549Z,59.07
2024-04-10T14:32:38.002Z,58.54
2024-04-10T14:35:11.113Z,58.52
2024-04-10T14:37:42.688Z,58.07
2024-04-10T14:40:16.391Z,57.98
2024-04-10T14:42:48.347Z,59.07
2024-04-10T14:45:19.546Z,57.86
2024-04-10T14:47:51.374Z,58.26
2024-04-10T14:50:23.504Z,57.47
2024-04-10T14:52:54.970Z,58.23
2024-04-10T14:55:26.319Z,58.18
2024-04-10T14:57:59.034Z,58.88
2024-04-10T15:00:37.421Z,57.49
2024-04-10T15:03:08.867Z,57.93
2024-04-10T15:05:39.971Z,57.75
2024-04-10T15:08:11.209Z,57.27
2024-04-10T15:10:44.186Z,58.06
2024-04-10T15:13:15.809Z,56.95
2024-04-10T15:15:52.638Z,58.09
2024-04-10T15:18:28.396Z,58.11
2024-04-10T15:21:03.771Z,57.44
2024-04-10T15:23:34.836Z,57.72
2024-04-10T15:26:06.509Z,56.45
2024-04-10T15:28:38.565Z,56.80
2024-04-10T15:31:14.750Z,57.27
2024-04-10T15:33:45.979Z,56.84
2024-04-10T15:36:16.978Z,56.48
2024-04-10T15:38:49.960Z,56.30
2024-04-10T15:41:21.878Z,56.84
2024-04-10T15:43:53.739Z,55.96
2024-04-10T15:46:25.509Z,56.37
2024-04-10T15:48:59.153Z,55.95
2024-04-10T15:51:31.585Z,57.15
2024-04-10T15:54:02.689Z,56.70
2024-04-10T15:56:34.076Z,56.13
2024-04-10T15:59:05.527Z,57.29
2024-04-10T16:01:36.573Z,57.18
2024-04-10T16:04:11.921Z,56.51
2024-04-10T16:06:45.858Z,56.99
2024-04-10T16:09:17.265Z,57.90
2024-04-10T16:11:49.559Z,57.46
2024-04-10T16:14:22.641Z,58.08
2024-04-10T16:16:57.135Z,57.34
2024-04-10T16:19:28.069Z,57.61
2024-04-10T16:21:58.972Z,57.50
2024-04-10T16:24:36.082Z,56.78
2024-04-10T16:27:07.502Z,58.44
2024-04-10T16:29:39.376Z,58.61
2024-04-10T16:32:10.632Z,57.50
2024-04-10T16:34:42.058Z,57.34
2024-04-10T16:37:13.327Z,58.39
2024-04-10T16:39:44.382Z,57.53
2024-04-10T16:42:15.327Z,57.29
2024-04-10T16:44:52.936Z,57.47
2024-04-10T16:47:23.796Z,58.09
2024-04-10T16:49:55.214Z,57.91
2024-04-10T16:52:28.786Z,57.42
2024-04-10T16:55:00.485Z,58.30
2024-04-10T16:57:31.759Z,57.70
2024-04-10T17:00:05.336Z,57.89
2024-04-10T17:02:37.667Z,57.62
2024-04-10T17:05:09.398Z,57.80
2024-04-10T17:07:40.358Z,59.10
2024-04-10T17:10:11.457Z,58.81
2024-04-10T17:12:42.537Z,58.42
2024-04-10T17:15:13.636Z,58.10
2024-04-10T17:18:02.845Z,58.90
2024-04-10T17:20:52.382Z,59.06
2024-04-10T17:23:23.162Z,57.91
2024-04-10T17:26:00.498Z,58.27
2024-04-10T17:28:31.654Z,57.78
2024-04-10T17:31:07.988Z,58.14
2024-04-10T17:33:39.063Z,58.91
2024-04-10T17:36:14.328Z,58.39
2024-04-10T17:38:45.215Z,57.69
2024-04-10T17:41:16.388Z,58.39
2024-04-10T17:43:47.427Z,57.65
2024-04-10T17:46:18.825Z,57.50
2024-04-10T17:48:49.604Z,58.73
2024-04-10T17:51:20.677Z,57.66
2024-04-10T17:53:51.272Z,58.67
2024-04-10T17:56:22.217Z,58.56
2024-04-10T17:58:52.998Z,58.36
2024-04-10T18:01:23.672Z,58.27
2024-04-10T18:03:55.565Z,58.86
2024-04-10T18:06:27.749Z,57.70
2024-04-10T18:09:01.430Z,58.30
2024-04-10T18:11:32.541Z,58.79
2024-04-10T18:14:03.222Z,57.27
2024-04-10T18:16:35.839Z,57.73
2024-04-10T18:19:09.072Z,58.63
2024-04-10T18:21:40.141Z,58.01
2024-04-10T18:24:11.375Z,57.73
2024-04-10T18:26:42.480Z,58.36
2024-04-10T18:29:14.487Z,57.27
2024-04-10T18:31:45.582Z,58.19
2024-04-10T18:34:18.341Z,57.77
2024-04-10T18:36:49.250Z,57.78
2024-04-10T18:39:20.097Z,58.08
2024-04-10T18:41:50.949Z,58.48
2024-04-10T18:44:21.875Z,58.23
2024-04-10T18:46:53.064Z,57.48
2024-04-10T18:49:30.003Z,58.15
2024-04-10T18:52:01.360Z,58.82
2024-04-10T18:54:34.038Z,57.63
2024-04-10T18:57:05.430Z,57.61
2024-04-10T18:59:36.270Z,57.63
2024-04-10T19:02:10.686Z,58.84
2024-04-10T19:04:41.473Z,57.24
2024-04-10T19:07:12.443Z,57.34
2024-04-10T19:09:43.220Z,57.90
2024-04-10T19:12:13.867Z,58.14
2024-04-10T19:14:44.892Z,58.71
2024-04-10T19:17:16.962Z,58.13
2024-04-10T19:19:47.284Z,57.86
2024-04-10T19:22:17.595Z,58.76
2024-04-10T19:24:50.353Z,57.98
2024-04-10T19:27:21.327Z,58.05
2024-04-10T19:29:52.183Z,58.91
2024-04-10T19:32:23.666Z,58.31
2024-04-10T19:34:54.288Z,58.02
2024-04-10T19:37:24.926Z,58.69
2024-04-10T19:39:56.592Z,58.64
2024-04-10T19:42:28.549Z,57.78
2024-04-10T19:44:59.450Z,57.44
2024-04-10T19:47:30.287Z,57.79
2024-04-10T19:50:01.122Z,58.15
2024-04-10T19:52:31.851Z,58.55
2024-04-10T19:55:02.237Z,58.39
2024-04-10T19:57:32.795Z,57.94
2024-04-10T20:00:03.466Z,58.92
2024-04-10T20:02:42.365Z,58.75
2024-04-10T20:05:18.121Z,58.82
2024-04-10T20:07:49.746Z,57.66
2024-04-10T20:10:20.741Z,58.19
2024-04-10T20:12:51.746Z,58.99
2024-04-10T20:15:22.817Z,58.90
2024-04-10T20:17:53.500Z,57.49
2024-04-10T20:20:24.690Z,58.66
2024-04-10T20:22:55.100Z,57.34
2024-04-10T20:25:25.831Z,58.25
2024-04-10T20:27:56.346Z,57.26
2024-04-10T20:30:27.316Z,58.33
2024-04-10T20:32:58.522Z,58.28
2024-04-10T20:35:29.592Z,57.51
2024-04-10T20:38:00.511Z,58.32
2024-04-10T20:40:31.185Z,57.10
2024-04-10T20:43:09.727Z,58.18
2024-04-10T20:45:40.387Z,57.56
2024-04-10T20:48:10.890Z,58.16
2024-04-10T20:50:41.704Z,57.08
2024-04-10T20:53:12.258Z,56.98
2024-04-10T20:55:42.999Z,57.98
2024-04-10T20:58:13.846Z,57.58
2024-04-10T21:00:44.741Z,57.47
2024-04-10T21:03:15.492Z,57.40
2024-04-10T21:05:53.859Z,56.91
2024-04-10T21:08:43.721Z,57.95
2024-04-10T21:11:34.010Z,57.67
2024-04-10T21:14:23.964Z,57.98
2024-04-10T21:17:12.889Z,58.07
2024-04-10T21:20:01.961Z,57.51
2024-04-10T21:22:51.036Z,57.65
2024-04-10T21:25:49.223Z,57.31
2024-04-10T21:28:39.520Z,58.06
2024-04-10T21:31:29.078Z,57.53
2024-04-10T21:34:18.684Z,58.14
2024-04-10T21:37:08.997Z,57.87
2024-04-10T21:39:57.828Z,57.21
2024-04-10T21:42:46.851Z,58.40
2024-04-10T21:45:35.740Z,58.00
2024-04-10T21:48:25.418Z,57.83
2024-04-10T21:51:19.850Z,57.47
2024-04-10T21:54:10.032Z,58.29
2024-04-10T21:56:59.187Z,58.67
2024-04-10T21:59:53.601Z,58.75
2024-04-10T22:02:50.104Z,57.70
2024-04-10T22:05:39.584Z,57.66
2024-04-10T22:08:28.440Z,57.87
2024-04-10T22:10:59.397Z,57.88
2024-04-10T22:13:30.611Z,57.95
2024-04-10T22:16:02.835Z,58.50
2024-04-10T22:18:51.748Z,59.50
2024-04-10T22:21:54.397Z,60.16
2024-04-10T22:24:26.153Z,60.61
2024-04-10T22:26:58.634Z,60.13
2024-04-10T22:29:30.154Z,61.43
2024-04-10T22:32:00.984Z,61.22
2024-04-10T22:34:32.508Z,60.78
2024-04-10T22:37:06.421Z,61.78
2024-04-10T22:39:45.224Z,61.05
2024-04-10T22:42:16.590Z,62.52
2024-04-10T22:44:52.086Z,62.46
2024-04-10T22:47:23.065Z,61.95
2024-04-10T22:49:56.083Z,62.37
2024-04-10T22:52:26.883Z,62.83
2024-04-10T22:54:57.571Z,63.09
2024-04-10T22:57:28.473Z,62.87
2024-04-10T22:59:59.154Z,63.57
2024-04-10T23:02:30.179Z,65.42
2024-04-10T23:05:16.578Z,64.54
2024-04-10T23:08:25.633Z,64.69
2024-04-10T23:10:45.520Z,66.43
2024-04-10T23:13:16.600Z,68.50
2024-04-10T23:15:47.212Z,68.93
2024-04-10T23:18:25.903Z,70.90
2024-04-10T23:21:08.263Z,69.79
2024-04-10T23:23:41.263Z,70.47
2024-04-10T23:26:11.785Z,70.58
2024-04-10T23:28:42.280Z,71.67
2024-04-10T23:31:13.354Z,71.88
2024-04-10T23:33:44.206Z,73.73
2024-04-10T23:36:15.383Z,72.33
2024-04-10T23:38:46.116Z,72.32
2024-04-10T23:41:17.084Z,72.25
2024-04-10T23:43:51.965Z,72.41
2024-04-10T23:46:22.893Z,72.98
2024-04-10T23:48:53.752Z,72.97
2024-04-10T23:51:24.351Z,71.88
2024-04-10T23:53:55.291Z,72.68
2024-04-10T23:56:25.938Z,72.20
2024-04-10T23:58:57.215Z,72.84
